sensor_id;sensor_type;location;lat;lon;timestamp;P1;durP1;ratioP1;P2;durP2;ratioP2
11665;SDS011;5889;51.350;6.708;2023-08-20T00:01:19;8.05;;;5.95;;
11665;SDS011;5889;51.350;6.708;2023-08-20T00:03:49;7.28;;;6.50;;
11665;SDS011;5889;51.350;6.708;2023-08-20T00:06:17;9.00;;;6.32;;
11665;SDS011;5889;51.350;6.708;2023-08-20T00:08:49;10.20;;;6.50;;
11665;SDS011;5889;51.350;6.708;2023-08-20T00:11:19;11.05;;;6.40;;
11665;SDS011;5889;51.350;6.708;2023-08-20T00:13:46;9.07;;;6.60;;
11665;SDS011;5889;51.350;6.708;2023-08-20T00:16:14;8.77;;;6.22;;
11665;SDS011;5889;51.350;6.708;2023-08-20T00:18:41;9.20;;;5.78;;
11665;SDS011;5889;51.350;6.708;2023-08-20T00:21:09;11.50;;;5.80;;
11665;SDS011;5889;51.350;6.708;2023-08-20T00:23:36;9.15;;;7.13;;
11665;SDS011;5889;51.350;6.708;2023-08-20T00:26:05;9.63;;;6.25;;
11665;SDS011;5889;51.350;6.708;2023-08-20T00:28:32;10.00;;;6.30;;
11665;SDS011;5889;51.350;6.708;2023-08-20T00:31:01;9.15;;;6.00;;
11665;SDS011;5889;51.350;6.708;2023-08-20T00:33:28;13.25;;;6.90;;
11665;SDS011;5889;51.350;6.708;2023-08-20T00:35:55;7.95;;;6.35;;
11665;SDS011;5889;51.350;6.708;2023-08-20T00:38:22;11.80;;;7.18;;
11665;SDS011;5889;51.350;6.708;2023-08-20T00:40:49;8.13;;;5.95;;
11665;SDS011;5889;51.350;6.708;2023-08-20T00:43:17;7.75;;;6.13;;
11665;SDS011;5889;51.350;6.708;2023-08-20T00:45:44;11.40;;;7.32;;
11665;SDS011;5889;51.350;6.708;2023-08-20T00:48:11;10.45;;;6.90;;
11665;SDS011;5889;51.350;6.708;2023-08-20T00:50:39;9.25;;;7.00;;
11665;SDS011;5889;51.350;6.708;2023-08-20T00:53:07;16.02;;;7.80;;
11665;SDS011;5889;51.350;6.708;2023-08-20T00:55:36;10.60;;;7.25;;
11665;SDS011;5889;51.350;6.708;2023-08-20T00:58:04;9.00;;;7.40;;
11665;SDS011;5889;51.350;6.708;2023-08-20T01:00:42;9.98;;;7.75;;
11665;SDS011;5889;51.350;6.708;2023-08-20T01:03:09;8.35;;;7.13;;
11665;SDS011;5889;51.350;6.708;2023-08-20T01:05:39;9.40;;;7.20;;
11665;SDS011;5889;51.350;6.708;2023-08-20T01:08:15;12.68;;;7.13;;
11665;SDS011;5889;51.350;6.708;2023-08-20T01:10:51;10.88;;;7.07;;
11665;SDS011;5889;51.350;6.708;2023-08-20T01:13:23;8.63;;;7.07;;
11665;SDS011;5889;51.350;6.708;2023-08-20T01:15:52;9.30;;;7.03;;
11665;SDS011;5889;51.350;6.708;2023-08-20T01:18:19;11.00;;;7.05;;
11665;SDS011;5889;51.350;6.708;2023-08-20T01:20:47;11.70;;;6.82;;
11665;SDS011;5889;51.350;6.708;2023-08-20T01:26:34;10.73;;;7.90;;
11665;SDS011;5889;51.350;6.708;2023-08-20T01:29:12;10.85;;;7.22;;
11665;SDS011;5889;51.350;6.708;2023-08-20T01:31:39;10.65;;;7.53;;
11665;SDS011;5889;51.350;6.708;2023-08-20T01:34:07;12.10;;;7.22;;
11665;SDS011;5889;51.350;6.708;2023-08-20T01:36:34;11.30;;;6.97;;
11665;SDS011;5889;51.350;6.708;2023-08-20T01:39:01;8.80;;;6.05;;
11665;SDS011;5889;51.350;6.708;2023-08-20T01:41:30;8.45;;;5.97;;
11665;SDS011;5889;51.350;6.708;2023-08-20T01:43:56;7.38;;;5.68;;
11665;SDS011;5889;51.350;6.708;2023-08-20T01:46:25;10.18;;;7.78;;
11665;SDS011;5889;51.350;6.708;2023-08-20T01:48:52;15.70;;;9.30;;
11665;SDS011;5889;51.350;6.708;2023-08-20T01:51:19;13.95;;;9.90;;
11665;SDS011;5889;51.350;6.708;2023-08-20T01:53:46;15.07;;;9.27;;
11665;SDS011;5889;51.350;6.708;2023-08-20T01:56:12;12.48;;;9.18;;
11665;SDS011;5889;51.350;6.708;2023-08-20T01:58:40;13.27;;;9.77;;
11665;SDS011;5889;51.350;6.708;2023-08-20T02:01:07;13.80;;;9.52;;
11665;SDS011;5889;51.350;6.708;2023-08-20T02:03:36;15.13;;;10.63;;
11665;SDS011;5889;51.350;6.708;2023-08-20T02:06:03;15.00;;;10.25;;
11665;SDS011;5889;51.350;6.708;2023-08-20T02:08:30;16.90;;;10.43;;
11665;SDS011;5889;51.350;6.708;2023-08-20T02:11:00;13.27;;;9.95;;
11665;SDS011;5889;51.350;6.708;2023-08-20T02:13:28;13.35;;;9.93;;
11665;SDS011;5889;51.350;6.708;2023-08-20T02:16:07;16.23;;;10.02;;
11665;SDS011;5889;51.350;6.708;2023-08-20T02:18:35;14.13;;;9.52;;
11665;SDS011;5889;51.350;6.708;2023-08-20T02:21:02;15.73;;;10.55;;
11665;SDS011;5889;51.350;6.708;2023-08-20T02:23:29;15.63;;;10.75;;
11665;SDS011;5889;51.350;6.708;2023-08-20T02:25:56;15.77;;;11.18;;
11665;SDS011;5889;51.350;6.708;2023-08-20T02:28:26;20.10;;;11.50;;
11665;SDS011;5889;51.350;6.708;2023-08-20T02:30:53;13.75;;;10.68;;
11665;SDS011;5889;51.350;6.708;2023-08-20T02:33:20;15.02;;;10.82;;
11665;SDS011;5889;51.350;6.708;2023-08-20T02:35:48;15.13;;;9.50;;
11665;SDS011;5889;51.350;6.708;2023-08-20T02:38:15;18.98;;;10.95;;
11665;SDS011;5889;51.350;6.708;2023-08-20T02:40:42;18.85;;;10.93;;
11665;SDS011;5889;51.350;6.708;2023-08-20T02:43:09;17.50;;;10.93;;
11665;SDS011;5889;51.350;6.708;2023-08-20T02:45:39;15.68;;;10.13;;
11665;SDS011;5889;51.350;6.708;2023-08-20T02:48:09;17.02;;;10.63;;
11665;SDS011;5889;51.350;6.708;2023-08-20T02:50:36;16.52;;;10.70;;
11665;SDS011;5889;51.350;6.708;2023-08-20T02:53:05;14.95;;;10.40;;
11665;SDS011;5889;51.350;6.708;2023-08-20T02:55:32;16.00;;;10.70;;
11665;SDS011;5889;51.350;6.708;2023-08-20T02:58:00;15.43;;;10.73;;
11665;SDS011;5889;51.350;6.708;2023-08-20T03:00:28;13.30;;;10.25;;
11665;SDS011;5889;51.350;6.708;2023-08-20T03:02:55;11.90;;;9.95;;
11665;SDS011;5889;51.350;6.708;2023-08-20T03:05:23;13.60;;;9.90;;
11665;SDS011;5889;51.350;6.708;2023-08-20T03:07:50;14.80;;;10.32;;
11665;SDS011;5889;51.350;6.708;2023-08-20T03:10:18;15.27;;;9.40;;
11665;SDS011;5889;51.350;6.708;2023-08-20T03:12:45;16.38;;;9.90;;
11665;SDS011;5889;51.350;6.708;2023-08-20T03:15:12;14.90;;;10.00;;
11665;SDS011;5889;51.350;6.708;2023-08-20T03:17:39;17.05;;;9.73;;
11665;SDS011;5889;51.350;6.708;2023-08-20T03:20:09;15.85;;;10.88;;
11665;SDS011;5889;51.350;6.708;2023-08-20T03:22:36;17.02;;;10.27;;
11665;SDS011;5889;51.350;6.708;2023-08-20T03:25:04;19.25;;;10.95;;
11665;SDS011;5889;51.350;6.708;2023-08-20T03:27:33;20.58;;;12.23;;
11665;SDS011;5889;51.350;6.708;2023-08-20T03:30:00;20.15;;;11.70;;
11665;SDS011;5889;51.350;6.708;2023-08-20T03:32:27;25.10;;;12.00;;
11665;SDS011;5889;51.350;6.708;2023-08-20T03:34:54;17.67;;;11.02;;
11665;SDS011;5889;51.350;6.708;2023-08-20T03:37:24;18.83;;;11.93;;
11665;SDS011;5889;51.350;6.708;2023-08-20T03:39:51;16.13;;;10.63;;
11665;SDS011;5889;51.350;6.708;2023-08-20T03:42:18;15.25;;;11.40;;
11665;SDS011;5889;51.350;6.708;2023-08-20T03:44:46;16.52;;;11.95;;
11665;SDS011;5889;51.350;6.708;2023-08-20T03:47:13;20.02;;;11.18;;
11665;SDS011;5889;51.350;6.708;2023-08-20T03:49:40;16.73;;;10.05;;
11665;SDS011;5889;51.350;6.708;2023-08-20T03:52:10;15.57;;;10.48;;
11665;SDS011;5889;51.350;6.708;2023-08-20T03:54:37;15.95;;;9.60;;
11665;SDS011;5889;51.350;6.708;2023-08-20T03:57:04;15.90;;;11.07;;
11665;SDS011;5889;51.350;6.708;2023-08-20T03:59:31;14.35;;;10.63;;
11665;SDS011;5889;51.350;6.708;2023-08-20T04:01:59;17.08;;;10.20;;
11665;SDS011;5889;51.350;6.708;2023-08-20T04:04:29;15.07;;;10.35;;
11665;SDS011;5889;51.350;6.708;2023-08-20T04:06:56;15.90;;;9.95;;
11665;SDS011;5889;51.350;6.708;2023-08-20T04:09:23;17.98;;;10.27;;
11665;SDS011;5889;51.350;6.708;2023-08-20T04:11:50;13.40;;;10.50;;
11665;SDS011;5889;51.350;6.708;2023-08-20T04:14:17;16.35;;;10.65;;
11665;SDS011;5889;51.350;6.708;2023-08-20T04:16:44;12.73;;;9.90;;
11665;SDS011;5889;51.350;6.708;2023-08-20T04:19:12;15.90;;;9.57;;
11665;SDS011;5889;51.350;6.708;2023-08-20T04:21:39;17.55;;;10.25;;
11665;SDS011;5889;51.350;6.708;2023-08-20T04:24:07;13.48;;;10.25;;
11665;SDS011;5889;51.350;6.708;2023-08-20T04:26:34;18.23;;;10.35;;
11665;SDS011;5889;51.350;6.708;2023-08-20T04:29:01;14.93;;;10.60;;
11665;SDS011;5889;51.350;6.708;2023-08-20T04:31:28;17.50;;;11.68;;
11665;SDS011;5889;51.350;6.708;2023-08-20T04:33:55;15.57;;;10.85;;
11665;SDS011;5889;51.350;6.708;2023-08-20T04:36:23;18.67;;;11.43;;
11665;SDS011;5889;51.350;6.708;2023-08-20T04:38:50;14.65;;;10.68;;
11665;SDS011;5889;51.350;6.708;2023-08-20T04:41:24;17.33;;;11.35;;
11665;SDS011;5889;51.350;6.708;2023-08-20T04:43:51;18.63;;;11.52;;
11665;SDS011;5889;51.350;6.708;2023-08-20T04:46:18;15.40;;;10.73;;
11665;SDS011;5889;51.350;6.708;2023-08-20T04:48:45;14.95;;;10.52;;
11665;SDS011;5889;51.350;6.708;2023-08-20T04:51:12;14.02;;;10.50;;
11665;SDS011;5889;51.350;6.708;2023-08-20T04:53:41;17.38;;;10.73;;
11665;SDS011;5889;51.350;6.708;2023-08-20T04:56:08;15.07;;;10.20;;
11665;SDS011;5889;51.350;6.708;2023-08-20T04:58:35;13.95;;;9.63;;
11665;SDS011;5889;51.350;6.708;2023-08-20T05:01:01;19.48;;;10.85;;
11665;SDS011;5889;51.350;6.708;2023-08-20T05:03:28;15.70;;;9.95;;
11665;SDS011;5889;51.350;6.708;2023-08-20T05:05:55;13.25;;;9.60;;
11665;SDS011;5889;51.350;6.708;2023-08-20T05:08:22;14.02;;;9.60;;
11665;SDS011;5889;51.350;6.708;2023-08-20T05:10:50;14.35;;;9.40;;
11665;SDS011;5889;51.350;6.708;2023-08-20T05:13:17;13.45;;;9.50;;
11665;SDS011;5889;51.350;6.708;2023-08-20T05:15:46;16.90;;;11.02;;
11665;SDS011;5889;51.350;6.708;2023-08-20T05:18:12;18.05;;;11.65;;
11665;SDS011;5889;51.350;6.708;2023-08-20T05:20:39;11.40;;;9.63;;
11665;SDS011;5889;51.350;6.708;2023-08-20T05:23:07;14.27;;;10.38;;
11665;SDS011;5889;51.350;6.708;2023-08-20T05:25:34;14.00;;;9.73;;
11665;SDS011;5889;51.350;6.708;2023-08-20T05:28:02;15.75;;;9.95;;
11665;SDS011;5889;51.350;6.708;2023-08-20T05:30:30;15.75;;;9.45;;
11665;SDS011;5889;51.350;6.708;2023-08-20T05:32:57;19.55;;;11.05;;
11665;SDS011;5889;51.350;6.708;2023-08-20T05:35:23;14.30;;;10.13;;
11665;SDS011;5889;51.350;6.708;2023-08-20T05:37:50;15.27;;;10.43;;
11665;SDS011;5889;51.350;6.708;2023-08-20T05:40:17;17.00;;;10.52;;
11665;SDS011;5889;51.350;6.708;2023-08-20T05:42:46;16.02;;;10.25;;
11665;SDS011;5889;51.350;6.708;2023-08-20T05:45:14;18.13;;;11.32;;
11665;SDS011;5889;51.350;6.708;2023-08-20T05:47:41;17.88;;;11.52;;
11665;SDS011;5889;51.350;6.708;2023-08-20T05:50:08;16.40;;;10.82;;
11665;SDS011;5889;51.350;6.708;2023-08-20T05:52:35;17.15;;;11.85;;
11665;SDS011;5889;51.350;6.708;2023-08-20T05:55:02;23.95;;;12.48;;
11665;SDS011;5889;51.350;6.708;2023-08-20T05:57:30;20.35;;;12.90;;
11665;SDS011;5889;51.350;6.708;2023-08-20T05:59:56;20.90;;;12.60;;
11665;SDS011;5889;51.350;6.708;2023-08-20T06:02:25;17.23;;;12.52;;
11665;SDS011;5889;51.350;6.708;2023-08-20T06:04:52;19.92;;;12.77;;
11665;SDS011;5889;51.350;6.708;2023-08-20T06:07:19;19.05;;;12.93;;
11665;SDS011;5889;51.350;6.708;2023-08-20T06:09:45;21.60;;;12.80;;
11665;SDS011;5889;51.350;6.708;2023-08-20T06:12:14;21.20;;;13.57;;
11665;SDS011;5889;51.350;6.708;2023-08-20T06:14:43;18.25;;;13.18;;
11665;SDS011;5889;51.350;6.708;2023-08-20T06:17:10;21.42;;;15.05;;
11665;SDS011;5889;51.350;6.708;2023-08-20T06:19:39;18.17;;;14.15;;
11665;SDS011;5889;51.350;6.708;2023-08-20T06:22:06;20.85;;;15.00;;
11665;SDS011;5889;51.350;6.708;2023-08-20T06:24:33;18.17;;;14.05;;
11665;SDS011;5889;51.350;6.708;2023-08-20T06:26:59;23.77;;;14.77;;
11665;SDS011;5889;51.350;6.708;2023-08-20T06:29:26;22.85;;;14.18;;
11665;SDS011;5889;51.350;6.708;2023-08-20T06:31:54;22.02;;;15.02;;
11665;SDS011;5889;51.350;6.708;2023-08-20T06:34:21;23.15;;;15.48;;
11665;SDS011;5889;51.350;6.708;2023-08-20T06:36:49;27.88;;;16.70;;
11665;SDS011;5889;51.350;6.708;2023-08-20T06:39:16;26.45;;;14.70;;
11665;SDS011;5889;51.350;6.708;2023-08-20T06:41:45;23.17;;;16.63;;
11665;SDS011;5889;51.350;6.708;2023-08-20T06:44:11;27.55;;;16.15;;
11665;SDS011;5889;51.350;6.708;2023-08-20T06:46:38;21.70;;;14.05;;
11665;SDS011;5889;51.350;6.708;2023-08-20T06:49:06;27.17;;;15.50;;
11665;SDS011;5889;51.350;6.708;2023-08-20T06:51:33;26.80;;;15.05;;
11665;SDS011;5889;51.350;6.708;2023-08-20T06:54:01;26.95;;;16.70;;
11665;SDS011;5889;51.350;6.708;2023-08-20T06:56:31;24.88;;;15.88;;
11665;SDS011;5889;51.350;6.708;2023-08-20T06:58:57;22.58;;;14.63;;
11665;SDS011;5889;51.350;6.708;2023-08-20T07:01:24;26.10;;;15.75;;
11665;SDS011;5889;51.350;6.708;2023-08-20T07:03:53;26.95;;;17.00;;
11665;SDS011;5889;51.350;6.708;2023-08-20T07:06:20;27.92;;;17.02;;
11665;SDS011;5889;51.350;6.708;2023-08-20T07:08:47;26.15;;;18.27;;
11665;SDS011;5889;51.350;6.708;2023-08-20T07:11:16;31.90;;;19.70;;
11665;SDS011;5889;51.350;6.708;2023-08-20T07:13:43;30.38;;;18.83;;
11665;SDS011;5889;51.350;6.708;2023-08-20T07:16:10;31.55;;;18.60;;
11665;SDS011;5889;51.350;6.708;2023-08-20T07:18:37;34.83;;;20.30;;
11665;SDS011;5889;51.350;6.708;2023-08-20T07:21:04;31.70;;;20.13;;
11665;SDS011;5889;51.350;6.708;2023-08-20T07:23:32;35.50;;;20.88;;
11665;SDS011;5889;51.350;6.708;2023-08-20T07:26:05;31.85;;;19.40;;
11665;SDS011;5889;51.350;6.708;2023-08-20T07:28:35;41.72;;;21.00;;
11665;SDS011;5889;51.350;6.708;2023-08-20T07:31:19;40.83;;;21.05;;
11665;SDS011;5889;51.350;6.708;2023-08-20T07:33:50;33.38;;;22.08;;
11665;SDS011;5889;51.350;6.708;2023-08-20T07:36:17;40.20;;;24.17;;
11665;SDS011;5889;51.350;6.708;2023-08-20T07:38:47;48.08;;;27.02;;
11665;SDS011;5889;51.350;6.708;2023-08-20T07:41:14;42.15;;;25.70;;
11665;SDS011;5889;51.350;6.708;2023-08-20T07:43:42;32.97;;;21.38;;
11665;SDS011;5889;51.350;6.708;2023-08-20T07:46:10;31.80;;;20.38;;
11665;SDS011;5889;51.350;6.708;2023-08-20T07:48:37;30.75;;;20.17;;
11665;SDS011;5889;51.350;6.708;2023-08-20T07:51:04;29.45;;;20.40;;
11665;SDS011;5889;51.350;6.708;2023-08-20T07:53:32;36.45;;;21.70;;
11665;SDS011;5889;51.350;6.708;2023-08-20T07:56:01;32.05;;;20.05;;
11665;SDS011;5889;51.350;6.708;2023-08-20T07:58:28;32.08;;;20.35;;
11665;SDS011;5889;51.350;6.708;2023-08-20T08:00:56;29.45;;;18.73;;
11665;SDS011;5889;51.350;6.708;2023-08-20T08:03:24;32.97;;;18.85;;
11665;SDS011;5889;51.350;6.708;2023-08-20T08:05:52;31.67;;;19.55;;
11665;SDS011;5889;51.350;6.708;2023-08-20T08:08:19;31.15;;;19.15;;
11665;SDS011;5889;51.350;6.708;2023-08-20T08:10:47;29.77;;;20.48;;
11665;SDS011;5889;51.350;6.708;2023-08-20T08:13:15;27.77;;;18.60;;
11665;SDS011;5889;51.350;6.708;2023-08-20T08:15:44;27.45;;;18.98;;
11665;SDS011;5889;51.350;6.708;2023-08-20T08:18:12;32.05;;;19.98;;
11665;SDS011;5889;51.350;6.708;2023-08-20T08:20:39;32.33;;;20.50;;
11665;SDS011;5889;51.350;6.708;2023-08-20T08:23:06;31.92;;;21.08;;
11665;SDS011;5889;51.350;6.708;2023-08-20T08:25:33;31.02;;;20.52;;
11665;SDS011;5889;51.350;6.708;2023-08-20T08:28:00;25.88;;;18.92;;
11665;SDS011;5889;51.350;6.708;2023-08-20T08:30:27;24.83;;;17.98;;
11665;SDS011;5889;51.350;6.708;2023-08-20T08:32:55;23.65;;;17.10;;
11665;SDS011;5889;51.350;6.708;2023-08-20T08:35:23;24.42;;;17.80;;
11665;SDS011;5889;51.350;6.708;2023-08-20T08:37:50;22.23;;;16.77;;
11665;SDS011;5889;51.350;6.708;2023-08-20T08:40:17;21.80;;;15.70;;
11665;SDS011;5889;51.350;6.708;2023-08-20T08:42:45;24.48;;;16.45;;
11665;SDS011;5889;51.350;6.708;2023-08-20T08:45:16;26.50;;;17.60;;
11665;SDS011;5889;51.350;6.708;2023-08-20T08:47:45;28.23;;;16.98;;
11665;SDS011;5889;51.350;6.708;2023-08-20T08:50:12;18.40;;;13.23;;
11665;SDS011;5889;51.350;6.708;2023-08-20T08:52:42;17.63;;;11.75;;
11665;SDS011;5889;51.350;6.708;2023-08-20T08:55:13;18.52;;;13.02;;
11665;SDS011;5889;51.350;6.708;2023-08-20T08:57:40;14.05;;;10.80;;
11665;SDS011;5889;51.350;6.708;2023-08-20T09:00:07;15.73;;;10.02;;
11665;SDS011;5889;51.350;6.708;2023-08-20T09:02:35;14.20;;;10.20;;
11665;SDS011;5889;51.350;6.708;2023-08-20T09:05:02;12.85;;;9.70;;
11665;SDS011;5889;51.350;6.708;2023-08-20T09:07:31;12.93;;;10.27;;
11665;SDS011;5889;51.350;6.708;2023-08-20T09:09:59;12.98;;;9.82;;
11665;SDS011;5889;51.350;6.708;2023-08-20T09:12:26;12.27;;;9.07;;
11665;SDS011;5889;51.350;6.708;2023-08-20T09:14:53;13.07;;;8.90;;
11665;SDS011;5889;51.350;6.708;2023-08-20T09:17:26;8.75;;;7.18;;
11665;SDS011;5889;51.350;6.708;2023-08-20T09:19:55;10.43;;;7.82;;
11665;SDS011;5889;51.350;6.708;2023-08-20T09:22:23;10.60;;;7.55;;
11665;SDS011;5889;51.350;6.708;2023-08-20T09:24:53;9.75;;;6.45;;
11665;SDS011;5889;51.350;6.708;2023-08-20T09:27:23;16.45;;;8.88;;
11665;SDS011;5889;51.350;6.708;2023-08-20T09:29:53;10.52;;;8.52;;
11665;SDS011;5889;51.350;6.708;2023-08-20T09:32:25;12.43;;;10.95;;
11665;SDS011;5889;51.350;6.708;2023-08-20T09:34:53;14.75;;;10.80;;
11665;SDS011;5889;51.350;6.708;2023-08-20T09:37:22;15.63;;;9.48;;
11665;SDS011;5889;51.350;6.708;2023-08-20T09:39:53;16.50;;;11.88;;
11665;SDS011;5889;51.350;6.708;2023-08-20T09:42:20;18.95;;;11.85;;
11665;SDS011;5889;51.350;6.708;2023-08-20T09:44:48;17.40;;;13.32;;
11665;SDS011;5889;51.350;6.708;2023-08-20T09:47:16;17.23;;;12.32;;
11665;SDS011;5889;51.350;6.708;2023-08-20T09:49:44;21.73;;;14.13;;
11665;SDS011;5889;51.350;6.708;2023-08-20T09:52:16;16.55;;;12.38;;
11665;SDS011;5889;51.350;6.708;2023-08-20T09:54:51;16.50;;;12.43;;
11665;SDS011;5889;51.350;6.708;2023-08-20T09:57:29;16.55;;;13.50;;
11665;SDS011;5889;51.350;6.708;2023-08-20T10:00:02;15.60;;;11.93;;
11665;SDS011;5889;51.350;6.708;2023-08-20T10:02:34;15.85;;;11.82;;
11665;SDS011;5889;51.350;6.708;2023-08-20T10:05:02;16.95;;;11.77;;
11665;SDS011;5889;51.350;6.708;2023-08-20T10:07:30;17.20;;;13.50;;
11665;SDS011;5889;51.350;6.708;2023-08-20T10:09:57;16.23;;;12.85;;
11665;SDS011;5889;51.350;6.708;2023-08-20T10:12:26;21.25;;;14.65;;
11665;SDS011;5889;51.350;6.708;2023-08-20T10:14:54;21.52;;;16.02;;
11665;SDS011;5889;51.350;6.708;2023-08-20T10:17:24;23.00;;;16.92;;
11665;SDS011;5889;51.350;6.708;2023-08-20T10:19:51;21.20;;;17.48;;
11665;SDS011;5889;51.350;6.708;2023-08-20T10:22:18;20.38;;;16.63;;
11665;SDS011;5889;51.350;6.708;2023-08-20T10:24:49;21.25;;;17.90;;
11665;SDS011;5889;51.350;6.708;2023-08-20T10:27:24;21.23;;;17.10;;
11665;SDS011;5889;51.350;6.708;2023-08-20T10:29:52;21.45;;;16.20;;
11665;SDS011;5889;51.350;6.708;2023-08-20T10:32:20;21.20;;;16.83;;
11665;SDS011;5889;51.350;6.708;2023-08-20T10:34:51;20.10;;;16.13;;
11665;SDS011;5889;51.350;6.708;2023-08-20T10:37:27;18.63;;;16.73;;
11665;SDS011;5889;51.350;6.708;2023-08-20T10:39:54;18.00;;;16.13;;
11665;SDS011;5889;51.350;6.708;2023-08-20T10:42:25;20.83;;;17.02;;
11665;SDS011;5889;51.350;6.708;2023-08-20T10:44:59;16.65;;;14.82;;
11665;SDS011;5889;51.350;6.708;2023-08-20T10:47:41;17.35;;;13.48;;
11665;SDS011;5889;51.350;6.708;2023-08-20T10:50:11;13.43;;;12.10;;
11665;SDS011;5889;51.350;6.708;2023-08-20T10:52:42;13.02;;;11.82;;
11665;SDS011;5889;51.350;6.708;2023-08-20T10:55:14;12.00;;;10.60;;
11665;SDS011;5889;51.350;6.708;2023-08-20T10:57:41;14.05;;;10.93;;
11665;SDS011;5889;51.350;6.708;2023-08-20T11:00:09;12.00;;;10.77;;
11665;SDS011;5889;51.350;6.708;2023-08-20T11:02:42;11.38;;;10.18;;
11665;SDS011;5889;51.350;6.708;2023-08-20T11:05:17;11.57;;;9.35;;
11665;SDS011;5889;51.350;6.708;2023-08-20T11:07:45;10.82;;;9.50;;
11665;SDS011;5889;51.350;6.708;2023-08-20T11:10:14;10.15;;;7.60;;
11665;SDS011;5889;51.350;6.708;2023-08-20T11:12:41;11.52;;;8.20;;
11665;SDS011;5889;51.350;6.708;2023-08-20T11:15:09;10.35;;;8.25;;
11665;SDS011;5889;51.350;6.708;2023-08-20T11:17:41;13.20;;;7.82;;
11665;SDS011;5889;51.350;6.708;2023-08-20T11:20:09;8.55;;;7.63;;
11665;SDS011;5889;51.350;6.708;2023-08-20T11:22:40;6.38;;;5.75;;
11665;SDS011;5889;51.350;6.708;2023-08-20T11:25:10;6.03;;;4.45;;
11665;SDS011;5889;51.350;6.708;2023-08-20T11:27:40;9.10;;;6.88;;
11665;SDS011;5889;51.350;6.708;2023-08-20T11:30:10;9.07;;;7.55;;
11665;SDS011;5889;51.350;6.708;2023-08-20T11:32:38;9.02;;;6.07;;
11665;SDS011;5889;51.350;6.708;2023-08-20T11:35:05;6.43;;;4.68;;
11665;SDS011;5889;51.350;6.708;2023-08-20T11:37:33;11.55;;;6.30;;
11665;SDS011;5889;51.350;6.708;2023-08-20T11:40:01;7.00;;;6.15;;
11665;SDS011;5889;51.350;6.708;2023-08-20T11:42:29;9.52;;;7.40;;
11665;SDS011;5889;51.350;6.708;2023-08-20T11:44:56;6.28;;;4.18;;
11665;SDS011;5889;51.350;6.708;2023-08-20T11:47:23;7.47;;;4.00;;
11665;SDS011;5889;51.350;6.708;2023-08-20T11:50:01;6.40;;;5.18;;
11665;SDS011;5889;51.350;6.708;2023-08-20T11:52:30;7.05;;;6.03;;
11665;SDS011;5889;51.350;6.708;2023-08-20T11:54:58;7.75;;;5.85;;
11665;SDS011;5889;51.350;6.708;2023-08-20T11:57:27;6.70;;;5.25;;
11665;SDS011;5889;51.350;6.708;2023-08-20T11:59:55;8.32;;;5.32;;
11665;SDS011;5889;51.350;6.708;2023-08-20T12:02:29;9.27;;;6.47;;
11665;SDS011;5889;51.350;6.708;2023-08-20T12:04:56;7.78;;;6.85;;
11665;SDS011;5889;51.350;6.708;2023-08-20T12:07:24;10.52;;;7.30;;
11665;SDS011;5889;51.350;6.708;2023-08-20T12:09:52;9.77;;;6.93;;
11665;SDS011;5889;51.350;6.708;2023-08-20T12:12:20;9.50;;;6.63;;
11665;SDS011;5889;51.350;6.708;2023-08-20T12:14:48;8.77;;;6.75;;
11665;SDS011;5889;51.350;6.708;2023-08-20T12:17:16;9.77;;;5.60;;
11665;SDS011;5889;51.350;6.708;2023-08-20T12:19:43;8.05;;;4.88;;
11665;SDS011;5889;51.350;6.708;2023-08-20T12:22:10;7.82;;;4.93;;
11665;SDS011;5889;51.350;6.708;2023-08-20T12:24:37;6.40;;;4.70;;
11665;SDS011;5889;51.350;6.708;2023-08-20T12:27:04;7.18;;;4.88;;
11665;SDS011;5889;51.350;6.708;2023-08-20T12:29:31;6.00;;;4.63;;
11665;SDS011;5889;51.350;6.708;2023-08-20T12:32:00;8.10;;;4.53;;
11665;SDS011;5889;51.350;6.708;2023-08-20T12:34:29;9.60;;;4.88;;
11665;SDS011;5889;51.350;6.708;2023-08-20T12:36:56;6.65;;;4.65;;
11665;SDS011;5889;51.350;6.708;2023-08-20T12:39:23;10.32;;;4.47;;
11665;SDS011;5889;51.350;6.708;2023-08-20T12:41:50;7.07;;;4.50;;
11665;SDS011;5889;51.350;6.708;2023-08-20T12:44:17;7.75;;;4.80;;
11665;SDS011;5889;51.350;6.708;2023-08-20T12:46:44;6.60;;;4.75;;
11665;SDS011;5889;51.350;6.708;2023-08-20T12:49:13;8.93;;;5.25;;
11665;SDS011;5889;51.350;6.708;2023-08-20T12:51:40;9.20;;;4.47;;
11665;SDS011;5889;51.350;6.708;2023-08-20T12:54:06;8.02;;;4.03;;
11665;SDS011;5889;51.350;6.708;2023-08-20T12:56:34;10.75;;;4.53;;
11665;SDS011;5889;51.350;6.708;2023-08-20T12:59:01;9.25;;;4.35;;
11665;SDS011;5889;51.350;6.708;2023-08-20T13:01:29;7.50;;;3.60;;
11665;SDS011;5889;51.350;6.708;2023-08-20T13:03:56;6.45;;;3.78;;
11665;SDS011;5889;51.350;6.708;2023-08-20T13:06:25;7.15;;;3.88;;
11665;SDS011;5889;51.350;6.708;2023-08-20T13:08:52;9.57;;;4.45;;
11665;SDS011;5889;51.350;6.708;2023-08-20T13:11:20;8.02;;;4.40;;
11665;SDS011;5889;51.350;6.708;2023-08-20T13:13:50;8.55;;;4.55;;
11665;SDS011;5889;51.350;6.708;2023-08-20T13:16:18;6.93;;;3.85;;
11665;SDS011;5889;51.350;6.708;2023-08-20T13:18:45;8.25;;;4.28;;
11665;SDS011;5889;51.350;6.708;2023-08-20T13:21:13;8.82;;;3.97;;
11665;SDS011;5889;51.350;6.708;2023-08-20T13:23:44;6.22;;;3.47;;
11665;SDS011;5889;51.350;6.708;2023-08-20T13:26:14;9.48;;;4.07;;
11665;SDS011;5889;51.350;6.708;2023-08-20T13:28:41;9.07;;;4.05;;
11665;SDS011;5889;51.350;6.708;2023-08-20T13:31:08;10.05;;;3.85;;
11665;SDS011;5889;51.350;6.708;2023-08-20T13:33:35;6.75;;;3.53;;
11665;SDS011;5889;51.350;6.708;2023-08-20T13:36:02;6.28;;;3.20;;
11665;SDS011;5889;51.350;6.708;2023-08-20T13:38:29;5.75;;;3.58;;
11665;SDS011;5889;51.350;6.708;2023-08-20T13:40:58;6.00;;;3.75;;
11665;SDS011;5889;51.350;6.708;2023-08-20T13:43:28;7.15;;;3.65;;
11665;SDS011;5889;51.350;6.708;2023-08-20T13:45:55;6.28;;;3.38;;
11665;SDS011;5889;51.350;6.708;2023-08-20T13:48:21;4.68;;;3.80;;
11665;SDS011;5889;51.350;6.708;2023-08-20T13:50:48;7.25;;;3.75;;
11665;SDS011;5889;51.350;6.708;2023-08-20T13:53:15;5.35;;;3.40;;
11665;SDS011;5889;51.350;6.708;2023-08-20T13:55:42;5.55;;;3.03;;
11665;SDS011;5889;51.350;6.708;2023-08-20T13:58:11;5.18;;;3.30;;
11665;SDS011;5889;51.350;6.708;2023-08-20T14:00:38;6.45;;;2.80;;
11665;SDS011;5889;51.350;6.708;2023-08-20T14:03:05;5.93;;;3.03;;
11665;SDS011;5889;51.350;6.708;2023-08-20T14:05:31;7.05;;;2.80;;
11665;SDS011;5889;51.350;6.708;2023-08-20T14:07:58;8.65;;;3.05;;
11665;SDS011;5889;51.350;6.708;2023-08-20T14:10:25;5.78;;;3.05;;
11665;SDS011;5889;51.350;6.708;2023-08-20T14:12:52;5.65;;;3.08;;
11665;SDS011;5889;51.350;6.708;2023-08-20T14:15:20;6.90;;;3.17;;
11665;SDS011;5889;51.350;6.708;2023-08-20T14:17:47;5.35;;;3.00;;
11665;SDS011;5889;51.350;6.708;2023-08-20T14:20:14;6.95;;;3.03;;
11665;SDS011;5889;51.350;6.708;2023-08-20T14:22:42;5.70;;;2.65;;
11665;SDS011;5889;51.350;6.708;2023-08-20T14:25:09;7.20;;;2.85;;
11665;SDS011;5889;51.350;6.708;2023-08-20T14:27:35;5.22;;;2.60;;
11665;SDS011;5889;51.350;6.708;2023-08-20T14:30:03;5.65;;;2.67;;
11665;SDS011;5889;51.350;6.708;2023-08-20T14:32:32;7.75;;;2.80;;
11665;SDS011;5889;51.350;6.708;2023-08-20T14:34:59;4.75;;;2.40;;
11665;SDS011;5889;51.350;6.708;2023-08-20T14:37:26;6.22;;;2.50;;
11665;SDS011;5889;51.350;6.708;2023-08-20T14:39:53;6.47;;;2.40;;
11665;SDS011;5889;51.350;6.708;2023-08-20T14:42:20;5.20;;;2.30;;
11665;SDS011;5889;51.350;6.708;2023-08-20T14:44:47;5.72;;;2.60;;
11665;SDS011;5889;51.350;6.708;2023-08-20T14:47:14;7.00;;;3.30;;
11665;SDS011;5889;51.350;6.708;2023-08-20T14:49:44;7.18;;;3.67;;
11665;SDS011;5889;51.350;6.708;2023-08-20T14:52:11;7.07;;;3.10;;
11665;SDS011;5889;51.350;6.708;2023-08-20T14:54:38;6.75;;;3.42;;